sensor_id;sensor_type;location;lat;lon;timestamp;P1;durP1;ratioP1;P2;durP2;ratioP2
42364;SDS011;28498;54.400;18.566;2023-01-04T00:01:16;16.92;;;6.95;;
42364;SDS011;28498;54.400;18.566;2023-01-04T00:03:45;13.20;;;6.80;;
42364;SDS011;28498;54.400;18.566;2023-01-04T00:06:13;20.88;;;6.75;;
42364;SDS011;28498;54.400;18.566;2023-01-04T00:08:41;14.88;;;7.18;;
42364;SDS011;28498;54.400;18.566;2023-01-04T00:11:18;17.80;;;7.28;;
42364;SDS011;28498;54.400;18.566;2023-01-04T00:13:50;17.83;;;6.88;;
42364;SDS011;28498;54.400;18.566;2023-01-04T00:16:21;18.60;;;6.53;;
42364;SDS011;28498;54.400;18.566;2023-01-04T00:18:54;16.05;;;6.72;;
42364;SDS011;28498;54.400;18.566;2023-01-04T00:23:51;21.00;;;6.88;;
42364;SDS011;28498;54.400;18.566;2023-01-04T00:26:21;16.15;;;6.40;;
42364;SDS011;28498;54.400;18.566;2023-01-04T00:28:59;23.45;;;6.82;;
42364;SDS011;28498;54.400;18.566;2023-01-04T00:31:28;19.30;;;7.07;;
42364;SDS011;28498;54.400;18.566;2023-01-04T00:33:57;16.05;;;7.03;;
42364;SDS011;28498;54.400;18.566;2023-01-04T00:36:26;17.33;;;7.45;;
42364;SDS011;28498;54.400;18.566;2023-01-04T00:38:54;17.48;;;7.35;;
42364;SDS011;28498;54.400;18.566;2023-01-04T00:41:36;19.58;;;7.40;;
42364;SDS011;28498;54.400;18.566;2023-01-04T00:44:24;17.20;;;7.75;;
42364;SDS011;28498;54.400;18.566;2023-01-04T00:46:51;20.88;;;7.55;;
42364;SDS011;28498;54.400;18.566;2023-01-04T00:49:19;15.18;;;6.90;;
42364;SDS011;28498;54.400;18.566;2023-01-04T00:51:46;18.50;;;8.48;;
42364;SDS011;28498;54.400;18.566;2023-01-04T00:54:13;22.95;;;8.13;;
42364;SDS011;28498;54.400;18.566;2023-01-04T00:56:41;13.98;;;7.15;;
42364;SDS011;28498;54.400;18.566;2023-01-04T00:59:09;18.80;;;8.13;;
42364;SDS011;28498;54.400;18.566;2023-01-04T01:01:38;14.88;;;8.63;;
42364;SDS011;28498;54.400;18.566;2023-01-04T01:04:08;19.50;;;8.50;;
42364;SDS011;28498;54.400;18.566;2023-01-04T01:06:38;16.92;;;7.13;;
42364;SDS011;28498;54.400;18.566;2023-01-04T01:09:05;18.05;;;7.70;;
42364;SDS011;28498;54.400;18.566;2023-01-04T01:11:32;18.98;;;7.88;;
42364;SDS011;28498;54.400;18.566;2023-01-04T01:14:02;16.42;;;8.52;;
42364;SDS011;28498;54.400;18.566;2023-01-04T01:16:29;17.25;;;8.88;;
42364;SDS011;28498;54.400;18.566;2023-01-04T01:19:16;14.45;;;7.70;;
42364;SDS011;28498;54.400;18.566;2023-01-04T01:21:43;21.75;;;9.20;;
42364;SDS011;28498;54.400;18.566;2023-01-04T01:24:14;19.27;;;8.38;;
42364;SDS011;28498;54.400;18.566;2023-01-04T01:26:43;17.00;;;8.80;;
42364;SDS011;28498;54.400;18.566;2023-01-04T01:29:11;20.85;;;8.27;;
42364;SDS011;28498;54.400;18.566;2023-01-04T01:31:39;17.50;;;8.52;;
42364;SDS011;28498;54.400;18.566;2023-01-04T01:34:07;15.63;;;8.15;;
42364;SDS011;28498;54.400;18.566;2023-01-04T01:36:34;19.15;;;8.68;;
42364;SDS011;28498;54.400;18.566;2023-01-04T01:39:03;18.17;;;8.35;;
42364;SDS011;28498;54.400;18.566;2023-01-04T01:41:32;17.38;;;7.97;;
42364;SDS011;28498;54.400;18.566;2023-01-04T01:44:01;15.45;;;7.88;;
42364;SDS011;28498;54.400;18.566;2023-01-04T01:46:52;20.42;;;8.00;;
42364;SDS011;28498;54.400;18.566;2023-01-04T01:49:38;20.02;;;7.85;;
42364;SDS011;28498;54.400;18.566;2023-01-04T01:52:08;20.00;;;8.80;;
42364;SDS011;28498;54.400;18.566;2023-01-04T01:54:39;20.73;;;8.75;;
42364;SDS011;28498;54.400;18.566;2023-01-04T01:57:10;19.83;;;7.95;;
42364;SDS011;28498;54.400;18.566;2023-01-04T01:59:42;17.00;;;8.25;;
42364;SDS011;28498;54.400;18.566;2023-01-04T02:02:11;18.17;;;7.85;;
42364;SDS011;28498;54.400;18.566;2023-01-04T02:04:40;15.88;;;8.38;;
42364;SDS011;28498;54.400;18.566;2023-01-04T02:07:14;19.52;;;8.75;;
42364;SDS011;28498;54.400;18.566;2023-01-04T02:09:44;16.92;;;8.35;;
42364;SDS011;28498;54.400;18.566;2023-01-04T02:12:12;23.35;;;9.13;;
42364;SDS011;28498;54.400;18.566;2023-01-04T02:14:40;20.33;;;7.93;;
42364;SDS011;28498;54.400;18.566;2023-01-04T02:17:47;24.45;;;8.15;;
42364;SDS011;28498;54.400;18.566;2023-01-04T02:20:36;16.63;;;7.60;;
42364;SDS011;28498;54.400;18.566;2023-01-04T02:26:49;14.45;;;6.90;;
42364;SDS011;28498;54.400;18.566;2023-01-04T02:32:22;15.48;;;8.13;;
42364;SDS011;28498;54.400;18.566;2023-01-04T02:35:21;23.55;;;8.25;;
42364;SDS011;28498;54.400;18.566;2023-01-04T02:40:45;23.92;;;8.13;;
42364;SDS011;28498;54.400;18.566;2023-01-04T02:43:49;16.23;;;8.02;;
42364;SDS011;28498;54.400;18.566;2023-01-04T02:47:01;16.75;;;8.05;;
42364;SDS011;28498;54.400;18.566;2023-01-04T02:49:32;19.52;;;8.07;;
42364;SDS011;28498;54.400;18.566;2023-01-04T02:52:17;23.17;;;8.73;;
42364;SDS011;28498;54.400;18.566;2023-01-04T02:54:45;21.67;;;9.75;;
42364;SDS011;28498;54.400;18.566;2023-01-04T03:09:02;18.42;;;8.50;;
42364;SDS011;28498;54.400;18.566;2023-01-04T03:11:37;21.33;;;8.73;;
42364;SDS011;28498;54.400;18.566;2023-01-04T03:14:29;19.88;;;9.05;;
42364;SDS011;28498;54.400;18.566;2023-01-04T03:17:04;20.02;;;8.23;;
42364;SDS011;28498;54.400;18.566;2023-01-04T03:19:36;16.60;;;8.10;;
42364;SDS011;28498;54.400;18.566;2023-01-04T03:22:18;19.65;;;8.27;;
42364;SDS011;28498;54.400;18.566;2023-01-04T03:25:17;23.33;;;8.38;;
42364;SDS011;28498;54.400;18.566;2023-01-04T03:28:06;19.77;;;8.25;;
42364;SDS011;28498;54.400;18.566;2023-01-04T03:30:57;17.45;;;8.82;;
42364;SDS011;28498;54.400;18.566;2023-01-04T03:34:07;16.25;;;8.07;;
42364;SDS011;28498;54.400;18.566;2023-01-04T03:37:15;16.77;;;7.15;;
42364;SDS011;28498;54.400;18.566;2023-01-04T03:42:58;20.13;;;8.07;;
42364;SDS011;28498;54.400;18.566;2023-01-04T03:49:09;17.33;;;7.60;;
42364;SDS011;28498;54.400;18.566;2023-01-04T03:51:38;15.18;;;8.48;;
42364;SDS011;28498;54.400;18.566;2023-01-04T03:54:07;16.10;;;7.90;;
42364;SDS011;28498;54.400;18.566;2023-01-04T03:56:45;20.00;;;9.05;;
42364;SDS011;28498;54.400;18.566;2023-01-04T03:59:13;21.75;;;8.27;;
42364;SDS011;28498;54.400;18.566;2023-01-04T04:01:40;18.25;;;8.32;;
42364;SDS011;28498;54.400;18.566;2023-01-04T04:04:09;19.83;;;8.23;;
42364;SDS011;28498;54.400;18.566;2023-01-04T04:06:55;19.30;;;7.82;;
42364;SDS011;28498;54.400;18.566;2023-01-04T04:09:41;19.98;;;8.02;;
42364;SDS011;28498;54.400;18.566;2023-01-04T04:12:08;18.38;;;8.57;;
42364;SDS011;28498;54.400;18.566;2023-01-04T04:14:35;15.50;;;7.85;;
42364;SDS011;28498;54.400;18.566;2023-01-04T04:17:02;16.33;;;7.68;;
42364;SDS011;28498;54.400;18.566;2023-01-04T04:19:29;21.95;;;8.65;;
42364;SDS011;28498;54.400;18.566;2023-01-04T04:21:56;19.35;;;8.18;;
42364;SDS011;28498;54.400;18.566;2023-01-04T04:24:24;22.67;;;8.32;;
42364;SDS011;28498;54.400;18.566;2023-01-04T04:26:53;16.80;;;8.13;;
42364;SDS011;28498;54.400;18.566;2023-01-04T04:29:21;19.40;;;8.70;;
42364;SDS011;28498;54.400;18.566;2023-01-04T04:31:49;19.08;;;7.38;;
42364;SDS011;28498;54.400;18.566;2023-01-04T04:34:16;17.52;;;7.57;;
42364;SDS011;28498;54.400;18.566;2023-01-04T04:36:43;19.90;;;7.90;;
42364;SDS011;28498;54.400;18.566;2023-01-04T04:39:10;17.33;;;7.68;;
42364;SDS011;28498;54.400;18.566;2023-01-04T04:41:38;17.27;;;7.85;;
42364;SDS011;28498;54.400;18.566;2023-01-04T04:44:17;15.52;;;7.20;;
42364;SDS011;28498;54.400;18.566;2023-01-04T04:46:46;15.95;;;7.72;;
42364;SDS011;28498;54.400;18.566;2023-01-04T04:49:14;17.95;;;8.00;;
42364;SDS011;28498;54.400;18.566;2023-01-04T04:51:42;17.05;;;7.85;;
42364;SDS011;28498;54.400;18.566;2023-01-04T04:54:16;13.82;;;7.57;;
42364;SDS011;28498;54.400;18.566;2023-01-04T04:56:45;20.73;;;8.40;;
42364;SDS011;28498;54.400;18.566;2023-01-04T04:59:13;19.27;;;9.02;;
42364;SDS011;28498;54.400;18.566;2023-01-04T05:01:41;18.80;;;7.63;;
42364;SDS011;28498;54.400;18.566;2023-01-04T05:04:08;21.02;;;7.93;;
42364;SDS011;28498;54.400;18.566;2023-01-04T05:06:42;20.05;;;8.38;;
42364;SDS011;28498;54.400;18.566;2023-01-04T05:09:10;18.90;;;7.90;;
42364;SDS011;28498;54.400;18.566;2023-01-04T05:11:38;19.35;;;7.65;;
42364;SDS011;28498;54.400;18.566;2023-01-04T05:14:24;20.65;;;7.45;;
42364;SDS011;28498;54.400;18.566;2023-01-04T05:16:52;17.75;;;7.35;;
42364;SDS011;28498;54.400;18.566;2023-01-04T05:19:19;17.40;;;7.97;;
42364;SDS011;28498;54.400;18.566;2023-01-04T05:21:46;21.08;;;7.70;;
42364;SDS011;28498;54.400;18.566;2023-01-04T05:24:13;22.73;;;9.20;;
42364;SDS011;28498;54.400;18.566;2023-01-04T05:26:40;16.52;;;7.90;;
42364;SDS011;28498;54.400;18.566;2023-01-04T05:29:07;18.88;;;8.70;;
42364;SDS011;28498;54.400;18.566;2023-01-04T05:31:54;23.20;;;9.70;;
42364;SDS011;28498;54.400;18.566;2023-01-04T05:34:21;27.67;;;10.75;;
42364;SDS011;28498;54.400;18.566;2023-01-04T05:36:48;30.92;;;11.40;;
42364;SDS011;28498;54.400;18.566;2023-01-04T05:39:15;34.35;;;12.07;;
42364;SDS011;28498;54.400;18.566;2023-01-04T05:41:42;26.92;;;11.20;;
42364;SDS011;28498;54.400;18.566;2023-01-04T05:44:28;27.77;;;10.73;;
42364;SDS011;28498;54.400;18.566;2023-01-04T05:46:55;31.10;;;10.50;;
42364;SDS011;28498;54.400;18.566;2023-01-04T05:49:40;26.80;;;11.10;;
42364;SDS011;28498;54.400;18.566;2023-01-04T05:52:09;27.65;;;11.32;;
42364;SDS011;28498;54.400;18.566;2023-01-04T05:54:36;25.25;;;11.80;;
42364;SDS011;28498;54.400;18.566;2023-01-04T05:57:04;33.00;;;12.43;;
42364;SDS011;28498;54.400;18.566;2023-01-04T05:59:32;26.85;;;11.45;;
42364;SDS011;28498;54.400;18.566;2023-01-04T06:02:09;30.48;;;11.77;;
42364;SDS011;28498;54.400;18.566;2023-01-04T06:05:05;28.52;;;12.48;;
42364;SDS011;28498;54.400;18.566;2023-01-04T06:07:32;33.17;;;13.93;;
42364;SDS011;28498;54.400;18.566;2023-01-04T06:10:00;35.55;;;11.90;;
42364;SDS011;28498;54.400;18.566;2023-01-04T06:12:27;35.10;;;12.70;;
42364;SDS011;28498;54.400;18.566;2023-01-04T06:14:54;27.23;;;13.23;;
42364;SDS011;28498;54.400;18.566;2023-01-04T06:17:21;38.65;;;13.63;;
42364;SDS011;28498;54.400;18.566;2023-01-04T06:19:47;38.92;;;14.23;;
42364;SDS011;28498;54.400;18.566;2023-01-04T06:22:15;47.35;;;16.75;;
42364;SDS011;28498;54.400;18.566;2023-01-04T06:24:42;37.53;;;14.55;;
42364;SDS011;28498;54.400;18.566;2023-01-04T06:27:09;50.00;;;16.38;;
42364;SDS011;28498;54.400;18.566;2023-01-04T06:29:36;39.30;;;15.50;;
42364;SDS011;28498;54.400;18.566;2023-01-04T06:32:03;40.30;;;15.23;;
42364;SDS011;28498;54.400;18.566;2023-01-04T06:34:30;45.97;;;16.52;;
42364;SDS011;28498;54.400;18.566;2023-01-04T06:36:57;38.78;;;14.25;;
42364;SDS011;28498;54.400;18.566;2023-01-04T06:39:24;44.05;;;16.05;;
42364;SDS011;28498;54.400;18.566;2023-01-04T06:41:51;32.20;;;13.98;;
42364;SDS011;28498;54.400;18.566;2023-01-04T06:44:18;37.30;;;13.57;;
42364;SDS011;28498;54.400;18.566;2023-01-04T06:46:46;32.70;;;14.13;;
42364;SDS011;28498;54.400;18.566;2023-01-04T06:49:13;32.05;;;13.65;;
42364;SDS011;28498;54.400;18.566;2023-01-04T06:51:40;31.65;;;12.73;;
42364;SDS011;28498;54.400;18.566;2023-01-04T06:54:08;31.00;;;12.48;;
42364;SDS011;28498;54.400;18.566;2023-01-04T06:56:39;30.58;;;14.48;;
42364;SDS011;28498;54.400;18.566;2023-01-04T06:59:06;30.08;;;11.60;;
42364;SDS011;28498;54.400;18.566;2023-01-04T07:01:34;35.40;;;12.40;;
42364;SDS011;28498;54.400;18.566;2023-01-04T07:04:02;29.08;;;11.70;;
42364;SDS011;28498;54.400;18.566;2023-01-04T07:06:29;32.22;;;12.38;;
42364;SDS011;28498;54.400;18.566;2023-01-04T07:08:56;34.17;;;12.35;;
42364;SDS011;28498;54.400;18.566;2023-01-04T07:11:23;34.10;;;12.10;;
42364;SDS011;28498;54.400;18.566;2023-01-04T07:13:51;26.67;;;10.40;;
42364;SDS011;28498;54.400;18.566;2023-01-04T07:16:19;25.92;;;10.90;;
42364;SDS011;28498;54.400;18.566;2023-01-04T07:18:46;27.40;;;11.65;;
42364;SDS011;28498;54.400;18.566;2023-01-04T07:21:13;20.00;;;9.63;;
42364;SDS011;28498;54.400;18.566;2023-01-04T07:23:40;26.00;;;10.32;;
42364;SDS011;28498;54.400;18.566;2023-01-04T07:26:08;24.58;;;10.05;;
42364;SDS011;28498;54.400;18.566;2023-01-04T07:28:35;24.77;;;9.18;;
42364;SDS011;28498;54.400;18.566;2023-01-04T07:31:21;21.98;;;9.95;;
42364;SDS011;28498;54.400;18.566;2023-01-04T07:33:48;25.50;;;10.45;;
42364;SDS011;28498;54.400;18.566;2023-01-04T07:36:16;21.17;;;9.70;;
42364;SDS011;28498;54.400;18.566;2023-01-04T07:38:43;21.27;;;9.15;;
42364;SDS011;28498;54.400;18.566;2023-01-04T07:41:10;19.95;;;8.93;;
42364;SDS011;28498;54.400;18.566;2023-01-04T07:43:37;21.73;;;10.25;;
42364;SDS011;28498;54.400;18.566;2023-01-04T07:46:04;21.13;;;9.55;;
42364;SDS011;28498;54.400;18.566;2023-01-04T07:48:31;19.08;;;9.00;;
42364;SDS011;28498;54.400;18.566;2023-01-04T07:50:58;19.40;;;8.95;;
42364;SDS011;28498;54.400;18.566;2023-01-04T07:53:25;23.40;;;8.88;;
42364;SDS011;28498;54.400;18.566;2023-01-04T07:55:56;20.55;;;9.30;;
42364;SDS011;28498;54.400;18.566;2023-01-04T07:58:24;19.38;;;9.65;;
42364;SDS011;28498;54.400;18.566;2023-01-04T08:00:52;22.95;;;9.95;;
42364;SDS011;28498;54.400;18.566;2023-01-04T08:03:19;20.80;;;9.15;;
42364;SDS011;28498;54.400;18.566;2023-01-04T08:05:46;23.20;;;9.75;;
42364;SDS011;28498;54.400;18.566;2023-01-04T08:08:13;19.33;;;9.48;;
42364;SDS011;28498;54.400;18.566;2023-01-04T08:10:40;22.05;;;9.80;;
42364;SDS011;28498;54.400;18.566;2023-01-04T08:13:07;21.33;;;9.77;;
42364;SDS011;28498;54.400;18.566;2023-01-04T08:15:34;19.02;;;9.70;;
42364;SDS011;28498;54.400;18.566;2023-01-04T08:18:03;22.48;;;10.48;;
42364;SDS011;28498;54.400;18.566;2023-01-04T08:20:31;22.92;;;11.07;;
42364;SDS011;28498;54.400;18.566;2023-01-04T08:22:58;24.17;;;10.85;;
42364;SDS011;28498;54.400;18.566;2023-01-04T08:25:25;29.88;;;11.18;;
42364;SDS011;28498;54.400;18.566;2023-01-04T08:27:52;26.40;;;11.55;;
42364;SDS011;28498;54.400;18.566;2023-01-04T08:30:19;19.35;;;9.45;;
42364;SDS011;28498;54.400;18.566;2023-01-04T08:32:46;24.40;;;10.43;;
42364;SDS011;28498;54.400;18.566;2023-01-04T08:35:14;19.77;;;10.43;;
42364;SDS011;28498;54.400;18.566;2023-01-04T08:37:41;19.33;;;10.55;;
42364;SDS011;28498;54.400;18.566;2023-01-04T08:40:08;23.70;;;11.00;;
42364;SDS011;28498;54.400;18.566;2023-01-04T08:42:36;23.48;;;11.57;;
42364;SDS011;28498;54.400;18.566;2023-01-04T08:45:03;26.13;;;12.48;;
42364;SDS011;28498;54.400;18.566;2023-01-04T08:47:31;21.20;;;11.95;;
42364;SDS011;28498;54.400;18.566;2023-01-04T08:49:58;26.27;;;13.55;;
42364;SDS011;28498;54.400;18.566;2023-01-04T08:52:34;24.80;;;12.20;;
42364;SDS011;28498;54.400;18.566;2023-01-04T08:55:02;25.98;;;14.50;;
42364;SDS011;28498;54.400;18.566;2023-01-04T08:57:37;27.00;;;12.93;;
42364;SDS011;28498;54.400;18.566;2023-01-04T09:00:04;27.00;;;13.95;;
42364;SDS011;28498;54.400;18.566;2023-01-04T09:02:32;33.25;;;15.63;;
42364;SDS011;28498;54.400;18.566;2023-01-04T09:04:59;25.30;;;13.45;;
42364;SDS011;28498;54.400;18.566;2023-01-04T09:07:30;32.55;;;14.90;;
42364;SDS011;28498;54.400;18.566;2023-01-04T09:09:57;28.48;;;15.82;;
42364;SDS011;28498;54.400;18.566;2023-01-04T09:12:26;31.77;;;14.57;;
42364;SDS011;28498;54.400;18.566;2023-01-04T09:14:53;28.67;;;13.93;;
42364;SDS011;28498;54.400;18.566;2023-01-04T09:17:20;33.03;;;15.93;;
42364;SDS011;28498;54.400;18.566;2023-01-04T09:19:48;34.05;;;16.48;;
42364;SDS011;28498;54.400;18.566;2023-01-04T09:22:15;29.75;;;16.90;;
42364;SDS011;28498;54.400;18.566;2023-01-04T09:24:42;31.92;;;16.88;;
42364;SDS011;28498;54.400;18.566;2023-01-04T09:27:09;32.22;;;16.20;;
42364;SDS011;28498;54.400;18.566;2023-01-04T09:29:36;37.20;;;17.15;;
42364;SDS011;28498;54.400;18.566;2023-01-04T09:32:03;33.80;;;17.45;;
42364;SDS011;28498;54.400;18.566;2023-01-04T09:34:34;29.95;;;17.73;;
42364;SDS011;28498;54.400;18.566;2023-01-04T09:37:01;31.70;;;17.52;;
42364;SDS011;28498;54.400;18.566;2023-01-04T09:39:28;35.10;;;18.20;;
42364;SDS011;28498;54.400;18.566;2023-01-04T09:41:59;33.33;;;18.13;;
42364;SDS011;28498;54.400;18.566;2023-01-04T09:50:09;32.50;;;17.53;;
42364;SDS011;28498;54.400;18.566;2023-01-04T10:01:06;33.90;;;16.88;;
42364;SDS011;28498;54.400;18.566;2023-01-04T10:04:06;36.83;;;18.90;;
42364;SDS011;28498;54.400;18.566;2023-01-04T10:06:41;35.70;;;17.50;;
42364;SDS011;28498;54.400;18.566;2023-01-04T10:09:12;33.22;;;17.80;;
42364;SDS011;28498;54.400;18.566;2023-01-04T10:17:34;35.03;;;18.58;;
42364;SDS011;28498;54.400;18.566;2023-01-04T10:23:43;33.05;;;17.10;;
42364;SDS011;28498;54.400;18.566;2023-01-04T10:26:29;37.53;;;18.25;;
42364;SDS011;28498;54.400;18.566;2023-01-04T10:32:08;37.30;;;18.45;;
42364;SDS011;28498;54.400;18.566;2023-01-04T10:34:44;31.23;;;17.63;;
42364;SDS011;28498;54.400;18.566;2023-01-04T10:37:16;32.28;;;17.45;;
42364;SDS011;28498;54.400;18.566;2023-01-04T10:39:50;35.40;;;17.80;;
42364;SDS011;28498;54.400;18.566;2023-01-04T10:42:33;35.70;;;17.20;;
42364;SDS011;28498;54.400;18.566;2023-01-04T10:48:42;32.65;;;17.08;;
42364;SDS011;28498;54.400;18.566;2023-01-04T10:51:12;35.08;;;17.70;;
42364;SDS011;28498;54.400;18.566;2023-01-04T10:53:44;35.28;;;18.33;;
42364;SDS011;28498;54.400;18.566;2023-01-04T10:56:17;33.10;;;16.85;;
42364;SDS011;28498;54.400;18.566;2023-01-04T11:01:39;37.50;;;17.92;;
42364;SDS011;28498;54.400;18.566;2023-01-04T11:04:44;33.17;;;17.60;;
42364;SDS011;28498;54.400;18.566;2023-01-04T11:07:33;37.20;;;19.25;;
42364;SDS011;28498;54.400;18.566;2023-01-04T11:10:11;34.72;;;18.42;;
42364;SDS011;28498;54.400;18.566;2023-01-04T11:12:46;39.05;;;20.40;;
42364;SDS011;28498;54.400;18.566;2023-01-04T11:15:13;33.42;;;17.88;;
42364;SDS011;28498;54.400;18.566;2023-01-04T11:17:40;34.53;;;17.80;;
42364;SDS011;28498;54.400;18.566;2023-01-04T11:20:08;34.88;;;19.50;;
42364;SDS011;28498;54.400;18.566;2023-01-04T11:25:14;38.58;;;19.27;;
42364;SDS011;28498;54.400;18.566;2023-01-04T11:28:07;35.08;;;18.05;;
42364;SDS011;28498;54.400;18.566;2023-01-04T11:31:49;36.95;;;19.17;;
42364;SDS011;28498;54.400;18.566;2023-01-04T11:34:02;37.63;;;19.52;;
42364;SDS011;28498;54.400;18.566;2023-01-04T11:38:57;38.53;;;19.05;;
42364;SDS011;28498;54.400;18.566;2023-01-04T11:41:25;38.55;;;20.17;;
42364;SDS011;28498;54.400;18.566;2023-01-04T11:43:56;39.78;;;19.55;;
42364;SDS011;28498;54.400;18.566;2023-01-04T11:46:26;38.75;;;18.90;;
42364;SDS011;28498;54.400;18.566;2023-01-04T11:48:54;34.97;;;19.02;;
42364;SDS011;28498;54.400;18.566;2023-01-04T11:53:56;35.25;;;20.00;;
42364;SDS011;28498;54.400;18.566;2023-01-04T11:56:25;37.25;;;19.52;;
42364;SDS011;28498;54.400;18.566;2023-01-04T12:01:44;35.67;;;18.38;;
42364;SDS011;28498;54.400;18.566;2023-01-04T12:04:14;35.00;;;18.70;;
42364;SDS011;28498;54.400;18.566;2023-01-04T12:06:47;40.33;;;20.20;;
42364;SDS011;28498;54.400;18.566;2023-01-04T12:09:22;40.25;;;21.02;;
42364;SDS011;28498;54.400;18.566;2023-01-04T12:11:53;43.67;;;21.90;;
42364;SDS011;28498;54.400;18.566;2023-01-04T12:14:26;50.70;;;23.52;;
42364;SDS011;28498;54.400;18.566;2023-01-04T12:17:17;50.60;;;23.30;;
42364;SDS011;28498;54.400;18.566;2023-01-04T12:19:54;42.33;;;21.73;;
42364;SDS011;28498;54.400;18.566;2023-01-04T12:22:38;44.33;;;22.80;;
42364;SDS011;28498;54.400;18.566;2023-01-04T12:27:49;48.30;;;23.45;;
42364;SDS011;28498;54.400;18.566;2023-01-04T12:36:00;49.45;;;25.27;;
42364;SDS011;28498;54.400;18.566;2023-01-04T12:41:18;49.97;;;25.52;;
42364;SDS011;28498;54.400;18.566;2023-01-04T12:43:46;53.45;;;25.58;;
42364;SDS011;28498;54.400;18.566;2023-01-04T12:57:58;60.72;;;27.60;;
42364;SDS011;28498;54.400;18.566;2023-01-04T13:08:26;52.22;;;26.25;;
42364;SDS011;28498;54.400;18.566;2023-01-04T13:10:59;49.33;;;25.83;;
42364;SDS011;28498;54.400;18.566;2023-01-04T13:19:23;54.70;;;25.48;;
42364;SDS011;28498;54.400;18.566;2023-01-04T13:21:51;48.97;;;24.85;;
42364;SDS011;28498;54.400;18.566;2023-01-04T13:27:07;49.42;;;25.20;;
42364;SDS011;28498;54.400;18.566;2023-01-04T13:29:40;49.45;;;24.08;;
42364;SDS011;28498;54.400;18.566;2023-01-04T13:32:11;48.00;;;23.35;;
42364;SDS011;28498;54.400;18.566;2023-01-04T13:34:50;46.83;;;23.13;;
42364;SDS011;28498;54.400;18.566;2023-01-04T13:42:54;52.15;;;24.00;;
42364;SDS011;28498;54.400;18.566;2023-01-04T13:45:46;48.60;;;21.95;;
42364;SDS011;28498;54.400;18.566;2023-01-04T13:48:35;46.47;;;22.95;;
42364;SDS011;28498;54.400;18.566;2023-01-04T13:51:12;51.38;;;24.35;;
42364;SDS011;28498;54.400;18.566;2023-01-04T13:53:54;49.45;;;23.88;;
42364;SDS011;28498;54.400;18.566;2023-01-04T13:56:25;51.05;;;23.30;;
42364;SDS011;28498;54.400;18.566;2023-01-04T13:58:53;44.05;;;22.58;;
42364;SDS011;28498;54.400;18.566;2023-01-04T14:01:22;48.97;;;23.63;;
42364;SDS011;28498;54.400;18.566;2023-01-04T14:03:52;42.47;;;21.88;;
42364;SDS011;28498;54.400;18.566;2023-01-04T14:11:41;45.15;;;22.27;;
42364;SDS011;28498;54.400;18.566;2023-01-04T14:19:40;44.55;;;23.35;;
42364;SDS011;28498;54.400;18.566;2023-01-04T14:31:12;38.35;;;20.48;;
42364;SDS011;28498;54.400;18.566;2023-01-04T14:33:45;41.20;;;21.88;;
42364;SDS011;28498;54.400;18.566;2023-01-04T14:36:23;39.13;;;20.77;;
42364;SDS011;28498;54.400;18.566;2023-01-04T14:41:32;39.53;;;19.98;;
42364;SDS011;28498;54.400;18.566;2023-01-04T14:46:52;37.20;;;19.63;;
42364;SDS011;28498;54.400;18.566;2023-01-04T14:49:23;38.25;;;20.30;;
42364;SDS011;28498;54.400;18.566;2023-01-04T14:51:57;36.45;;;18.83;;
42364;SDS011;28498;54.400;18.566;2023-01-04T14:54:26;34.20;;;18.90;;
42364;SDS011;28498;54.400;18.566;2023-01-04T14:56:55;33.28;;;17.35;;
42364;SDS011;28498;54.400;18.566;2023-01-04T14:59:24;35.40;;;20.15;;
42364;SDS011;28498;54.400;18.566;2023-01-04T15:01:52;28.45;;;16.58;;
42364;SDS011;28498;54.400;18.566;2023-01-04T15:04:20;29.23;;;16.95;;
42364;SDS011;28498;54.400;18.566;2023-01-04T15:06:53;28.80;;;16.58;;
42364;SDS011;28498;54.400;18.566;2023-01-04T15:09:22;29.85;;;15.07;;
42364;SDS011;28498;54.400;18.566;2023-01-04T15:11:49;27.38;;;14.75;;
42364;SDS011;28498;54.400;18.566;2023-01-04T15:14:16;30.65;;;15.65;;
42364;SDS011;28498;54.400;18.566;2023-01-04T15:16:43;23.60;;;13.23;;
42364;SDS011;28498;54.400;18.566;2023-01-04T15:19:10;22.33;;;12.70;;
42364;SDS011;28498;54.400;18.566;2023-01-04T15:21:37;20.95;;;11.35;;
42364;SDS011;28498;54.400;18.566;2023-01-04T15:24:07;19.00;;;10.57;;
42364;SDS011;28498;54.400;18.566;2023-01-04T15:26:36;20.73;;;11.88;;
42364;SDS011;28498;54.400;18.566;2023-01-04T15:29:04;21.75;;;12.07;;
42364;SDS011;28498;54.400;18.566;2023-01-04T15:31:32;23.30;;;11.05;;
42364;SDS011;28498;54.400;18.566;2023-01-04T15:34:05;19.45;;;10.68;;
42364;SDS011;28498;54.400;18.566;2023-01-04T15:36:32;17.60;;;10.60;;
42364;SDS011;28498;54.400;18.566;2023-01-04T15:39:04;17.83;;;10.27;;
42364;SDS011;28498;54.400;18.566;2023-01-04T15:41:32;17.02;;;9.50;;
42364;SDS011;28498;54.400;18.566;2023-01-04T15:44:18;16.42;;;9.38;;
42364;SDS011;28498;54.400;18.566;2023-01-04T15:46:45;16.17;;;9.88;;
42364;SDS011;28498;54.400;18.566;2023-01-04T15:49:12;14.15;;;8.80;;
42364;SDS011;28498;54.400;18.566;2023-01-04T15:51:43;16.80;;;9.88;;
42364;SDS011;28498;54.400;18.566;2023-01-04T15:54:13;17.83;;;9.18;;
42364;SDS011;28498;54.400;18.566;2023-01-04T15:56:40;16.55;;;9.73;;
42364;SDS011;28498;54.400;18.566;2023-01-04T15:59:07;14.45;;;8.80;;
42364;SDS011;28498;54.400;18.566;2023-01-04T16:01:34;14.77;;;9.23;;
42364;SDS011;28498;54.400;18.566;2023-01-04T16:04:01;12.10;;;7.93;;
42364;SDS011;28498;54.400;18.566;2023-01-04T16:06:31;14.55;;;7.82;;
42364;SDS011;28498;54.400;18.566;2023-01-04T16:08:58;16.08;;;8.68;;
42364;SDS011;28498;54.400;18.566;2023-01-04T16:11:27;13.00;;;7.97;;
42364;SDS011;28498;54.400;18.566;2023-01-04T16:13:54;14.82;;;8.10;;
42364;SDS011;28498;54.400;18.566;2023-01-04T16:16:23;14.20;;;7.95;;
42364;SDS011;28498;54.400;18.566;2023-01-04T16:18:55;12.18;;;7.10;;
42364;SDS011;28498;54.400;18.566;2023-01-04T16:24:08;12.38;;;6.60;;
42364;SDS011;28498;54.400;18.566;2023-01-04T16:26:55;12.85;;;7.13;;
42364;SDS011;28498;54.400;18.566;2023-01-04T16:29:22;12.75;;;6.25;;
42364;SDS011;28498;54.400;18.566;2023-01-04T16:31:50;13.10;;;6.72;;
42364;SDS011;28498;54.400;18.566;2023-01-04T16:34:17;9.85;;;6.30;;
42364;SDS011;28498;54.400;18.566;2023-01-04T16:36:44;13.15;;;6.05;;
42364;SDS011;28498;54.400;18.566;2023-01-04T16:39:11;10.00;;;6.13;;
42364;SDS011;28498;54.400;18.566;2023-01-04T16:41:38;10.13;;;6.20;;
42364;SDS011;28498;54.400;18.566;2023-01-04T16:44:05;10.20;;;6.40;;
42364;SDS011;28498;54.400;18.566;2023-01-04T16:46:33;8.60;;;5.60;;
42364;SDS011;28498;54.400;18.566;2023-01-04T16:49:02;11.02;;;6.13;;
42364;SDS011;28498;54.400;18.566;2023-01-04T16:51:30;8.98;;;5.53;;
42364;SDS011;28498;54.400;18.566;2023-01-04T16:54:00;9.93;;;5.97;;
42364;SDS011;28498;54.400;18.566;2023-01-04T16:56:31;10.40;;;5.47;;
42364;SDS011;28498;54.400;18.566;2023-01-04T16:58:59;11.18;;;6.28;;
42364;SDS011;28498;54.400;18.566;2023-01-04T17:01:28;9.35;;;5.18;;
42364;SDS011;28498;54.400;18.566;2023-01-04T17:04:00;9.68;;;5.57;;
42364;SDS011;28498;54.400;18.566;2023-01-04T17:06:29;9.88;;;4.97;;
42364;SDS011;28498;54.400;18.566;2023-01-04T17:08:58;8.45;;;4.90;;